MROC/SJO METAR and TAF weather

Enter ICAO airport designator
Station Type Date Time Source
MROC METAR 2022/12/10 02:00 UTC NOAA

MROC 100200Z 11007KT 080V140 CAVOK 20/15 A3004 NOSIG


Station Type Date Time Source
MROC Decoded METAR 2022/12/10 02:00 UTC NOAA

Juan Santamaria, Costa Rica (MROC) 10-00N 084-13W 939M
Dec 09, 2022 - 09:00 PM EST / 2022.12.10 0200 UTC
Wind: from the ESE (110 degrees) at 8 MPH (7 KT) (direction variable):0
Visibility: greater than 7 mile(s):0
Temperature: 68 F (20 C)
Dew Point: 59 F (15 C)
Relative Humidity: 72%
Pressure (altimeter): 30.04 in. Hg (1017 hPa)
ob: MROC 100200Z 11007KT 080V140 CAVOK 20/15 A3004 NOSIG
cycle: 2

Station Type Date Time Source
MROC TAF 2022/12/09 18:36 UTC NOAA

TAF MROC 091700Z 0918/1018 10010KT 9999 FEW045 TX28/0919Z TN18/1011Z
TEMPO 0918/0924 10012G22KT

Example: see airport list